sensor_id;sensor_type;location;lat;lon;timestamp;pressure;altitude;pressure_sealevel;temperature;humidity
61037;BME280;72210;47.076;15.430;2023-09-19T00:02:28;96738.16;;;19.85;100.00
61037;BME280;72210;47.076;15.430;2023-09-19T00:04:55;96747.06;;;19.76;100.00
61037;BME280;72210;47.076;15.430;2023-09-19T00:07:22;96749.19;;;19.72;100.00
61037;BME280;72210;47.076;15.430;2023-09-19T00:09:49;96757.94;;;19.64;100.00
61037;BME280;72210;47.076;15.430;2023-09-19T00:12:16;96755.63;;;19.53;100.00
61037;BME280;72210;47.076;15.430;2023-09-19T00:14:43;96759.09;;;19.45;100.00
61037;BME280;72210;47.076;15.430;2023-09-19T00:17:10;96768.97;;;19.43;100.00
61037;BME280;72210;47.076;15.430;2023-09-19T00:19:39;96768.31;;;19.41;100.00
61037;BME280;72210;47.076;15.430;2023-09-19T00:22:06;96759.03;;;19.37;100.00
61037;BME280;72210;47.076;15.430;2023-09-19T00:24:33;96767.13;;;19.35;100.00
61037;BME280;72210;47.076;15.430;2023-09-19T00:27:00;96768.13;;;19.34;100.00
61037;BME280;72210;47.076;15.430;2023-09-19T00:29:27;96777.69;;;19.35;100.00
61037;BME280;72210;47.076;15.430;2023-09-19T00:31:54;96767.59;;;19.31;100.00
61037;BME280;72210;47.076;15.430;2023-09-19T00:34:21;96761.19;;;19.25;100.00
61037;BME280;72210;47.076;15.430;2023-09-19T00:36:50;96762.31;;;19.23;100.00
61037;BME280;72210;47.076;15.430;2023-09-19T00:39:17;96762.13;;;19.16;100.00
61037;BME280;72210;47.076;15.430;2023-09-19T00:41:44;96753.09;;;19.27;100.00
61037;BME280;72210;47.076;15.430;2023-09-19T00:44:11;96760.53;;;19.31;100.00
61037;BME280;72210;47.076;15.430;2023-09-19T00:46:39;96761.50;;;19.30;100.00
61037;BME280;72210;47.076;15.430;2023-09-19T00:49:08;96763.03;;;19.41;100.00
61037;BME280;72210;47.076;15.430;2023-09-19T00:51:35;96762.22;;;19.49;100.00
61037;BME280;72210;47.076;15.430;2023-09-19T00:54:04;96765.84;;;19.48;100.00
61037;BME280;72210;47.076;15.430;2023-09-19T00:56:31;96765.81;;;19.40;100.00
61037;BME280;72210;47.076;15.430;2023-09-19T00:58:58;96761.84;;;19.35;100.00
61037;BME280;72210;47.076;15.430;2023-09-19T01:01:25;96756.59;;;19.44;100.00
61037;BME280;72210;47.076;15.430;2023-09-19T01:03:53;96753.13;;;19.43;100.00
61037;BME280;72210;47.076;15.430;2023-09-19T01:06:20;96750.63;;;19.42;100.00
61037;BME280;72210;47.076;15.430;2023-09-19T01:08:47;96749.31;;;19.37;100.00
61037;BME280;72210;47.076;15.430;2023-09-19T01:11:20;96755.91;;;19.33;100.00
61037;BME280;72210;47.076;15.430;2023-09-19T01:13:56;96751.44;;;19.26;100.00
61037;BME280;72210;47.076;15.430;2023-09-19T01:16:34;96758.00;;;19.22;100.00
61037;BME280;72210;47.076;15.430;2023-09-19T01:19:20;96767.91;;;19.19;100.00
61037;BME280;72210;47.076;15.430;2023-09-19T01:21:59;96775.34;;;19.16;100.00
61037;BME280;72210;47.076;15.430;2023-09-19T01:27:58;96762.78;;;19.10;100.00
61037;BME280;72210;47.076;15.430;2023-09-19T01:30:35;96760.63;;;19.05;100.00
61037;BME280;72210;47.076;15.430;2023-09-19T01:33:07;96769.81;;;19.01;100.00
61037;BME280;72210;47.076;15.430;2023-09-19T01:35:34;96756.28;;;18.96;100.00
61037;BME280;72210;47.076;15.430;2023-09-19T01:38:01;96759.59;;;18.98;100.00
61037;BME280;72210;47.076;15.430;2023-09-19T01:40:28;96759.97;;;19.11;100.00
61037;BME280;72210;47.076;15.430;2023-09-19T01:42:58;96758.16;;;19.20;100.00
61037;BME280;72210;47.076;15.430;2023-09-19T01:45:35;96748.66;;;19.35;100.00
61037;BME280;72210;47.076;15.430;2023-09-19T01:48:13;96742.75;;;19.58;100.00
61037;BME280;72210;47.076;15.430;2023-09-19T01:50:55;96743.72;;;19.57;100.00
61037;BME280;72210;47.076;15.430;2023-09-19T01:53:26;96756.44;;;19.45;100.00
61037;BME280;72210;47.076;15.430;2023-09-19T01:55:54;96759.72;;;19.39;100.00
61037;BME280;72210;47.076;15.430;2023-09-19T01:58:29;96759.69;;;19.31;100.00
61037;BME280;72210;47.076;15.430;2023-09-19T02:01:01;96766.09;;;19.20;100.00
61037;BME280;72210;47.076;15.430;2023-09-19T02:03:31;96768.56;;;19.13;100.00
61037;BME280;72210;47.076;15.430;2023-09-19T02:05:59;96769.03;;;19.09;100.00
61037;BME280;72210;47.076;15.430;2023-09-19T02:08:26;96780.88;;;19.05;100.00
61037;BME280;72210;47.076;15.430;2023-09-19T02:10:53;96778.41;;;19.03;100.00
61037;BME280;72210;47.076;15.430;2023-09-19T02:13:21;96781.41;;;19.08;100.00
61037;BME280;72210;47.076;15.430;2023-09-19T02:15:49;96780.06;;;19.04;100.00
61037;BME280;72210;47.076;15.430;2023-09-19T02:18:17;96782.69;;;19.04;100.00
61037;BME280;72210;47.076;15.430;2023-09-19T02:20:44;96790.78;;;19.02;100.00
61037;BME280;72210;47.076;15.430;2023-09-19T02:23:12;96795.25;;;19.02;100.00
61037;BME280;72210;47.076;15.430;2023-09-19T02:25:39;96797.19;;;19.00;100.00
61037;BME280;72210;47.076;15.430;2023-09-19T02:28:06;96800.84;;;18.99;100.00
61037;BME280;72210;47.076;15.430;2023-09-19T02:30:33;96785.66;;;19.01;100.00
61037;BME280;72210;47.076;15.430;2023-09-19T02:33:00;96776.81;;;19.18;100.00
61037;BME280;72210;47.076;15.430;2023-09-19T02:35:29;96778.53;;;19.44;100.00
61037;BME280;72210;47.076;15.430;2023-09-19T02:37:56;96781.84;;;19.46;100.00
61037;BME280;72210;47.076;15.430;2023-09-19T02:40:23;96779.72;;;19.58;100.00
61037;BME280;72210;47.076;15.430;2023-09-19T02:42:53;96786.22;;;19.80;100.00
61037;BME280;72210;47.076;15.430;2023-09-19T02:45:21;96785.06;;;19.83;100.00
61037;BME280;72210;47.076;15.430;2023-09-19T02:47:48;96787.88;;;19.81;100.00
61037;BME280;72210;47.076;15.430;2023-09-19T02:50:16;96790.84;;;19.78;100.00
61037;BME280;72210;47.076;15.430;2023-09-19T02:52:45;96789.31;;;19.76;100.00
61037;BME280;72210;47.076;15.430;2023-09-19T02:55:12;96781.59;;;19.82;100.00
61037;BME280;72210;47.076;15.430;2023-09-19T02:57:40;96797.94;;;19.78;100.00
61037;BME280;72210;47.076;15.430;2023-09-19T03:00:08;96803.56;;;19.83;100.00
61037;BME280;72210;47.076;15.430;2023-09-19T03:02:35;96795.25;;;19.69;100.00
61037;BME280;72210;47.076;15.430;2023-09-19T03:05:02;96804.47;;;19.57;100.00
61037;BME280;72210;47.076;15.430;2023-09-19T03:07:29;96805.28;;;19.49;100.00
61037;BME280;72210;47.076;15.430;2023-09-19T03:09:58;96818.97;;;19.45;100.00
61037;BME280;72210;47.076;15.430;2023-09-19T03:12:25;96809.03;;;19.38;100.00
61037;BME280;72210;47.076;15.430;2023-09-19T03:14:52;96813.84;;;19.35;100.00
61037;BME280;72210;47.076;15.430;2023-09-19T03:17:19;96814.16;;;19.40;100.00
61037;BME280;72210;47.076;15.430;2023-09-19T03:19:46;96821.59;;;19.36;100.00
61037;BME280;72210;47.076;15.430;2023-09-19T03:22:14;96820.63;;;19.37;100.00
61037;BME280;72210;47.076;15.430;2023-09-19T03:24:41;96822.56;;;19.27;100.00
61037;BME280;72210;47.076;15.430;2023-09-19T03:27:10;96816.63;;;19.25;100.00
61037;BME280;72210;47.076;15.430;2023-09-19T03:29:37;96836.69;;;19.18;100.00
61037;BME280;72210;47.076;15.430;2023-09-19T03:32:05;96819.03;;;19.18;100.00
61037;BME280;72210;47.076;15.430;2023-09-19T03:34:32;96812.91;;;19.10;100.00
61037;BME280;72210;47.076;15.430;2023-09-19T03:36:59;96813.25;;;19.07;100.00
61037;BME280;72210;47.076;15.430;2023-09-19T03:39:26;96825.44;;;19.08;100.00
61037;BME280;72210;47.076;15.430;2023-09-19T03:41:53;96822.63;;;19.09;100.00
61037;BME280;72210;47.076;15.430;2023-09-19T03:44:22;96820.53;;;19.13;100.00
61037;BME280;72210;47.076;15.430;2023-09-19T03:46:49;96814.72;;;19.09;100.00
61037;BME280;72210;47.076;15.430;2023-09-19T03:49:16;96817.81;;;19.05;100.00
61037;BME280;72210;47.076;15.430;2023-09-19T03:51:43;96811.53;;;18.97;100.00
61037;BME280;72210;47.076;15.430;2023-09-19T03:54:10;96813.97;;;18.91;100.00
61037;BME280;72210;47.076;15.430;2023-09-19T03:56:37;96815.63;;;18.92;100.00
61037;BME280;72210;47.076;15.430;2023-09-19T03:59:04;96820.09;;;18.91;100.00
61037;BME280;72210;47.076;15.430;2023-09-19T04:01:33;96819.09;;;18.92;100.00
61037;BME280;72210;47.076;15.430;2023-09-19T04:04:00;96821.88;;;18.91;100.00
61037;BME280;72210;47.076;15.430;2023-09-19T04:06:27;96823.88;;;18.89;100.00
61037;BME280;72210;47.076;15.430;2023-09-19T04:08:54;96822.63;;;18.83;100.00
61037;BME280;72210;47.076;15.430;2023-09-19T04:11:21;96840.00;;;18.86;100.00
61037;BME280;72210;47.076;15.430;2023-09-19T04:13:48;96835.81;;;18.83;100.00
61037;BME280;72210;47.076;15.430;2023-09-19T04:16:16;96827.25;;;18.81;100.00
61037;BME280;72210;47.076;15.430;2023-09-19T04:18:44;96834.50;;;18.79;100.00
61037;BME280;72210;47.076;15.430;2023-09-19T04:21:11;96846.34;;;18.75;100.00
61037;BME280;72210;47.076;15.430;2023-09-19T04:23:38;96857.91;;;18.74;100.00
61037;BME280;72210;47.076;15.430;2023-09-19T04:26:06;96860.69;;;18.72;100.00
61037;BME280;72210;47.076;15.430;2023-09-19T04:28:33;96856.38;;;18.71;100.00
61037;BME280;72210;47.076;15.430;2023-09-19T04:31:00;96861.50;;;18.73;100.00
61037;BME280;72210;47.076;15.430;2023-09-19T04:33:27;96873.63;;;18.65;100.00
61037;BME280;72210;47.076;15.430;2023-09-19T04:35:56;96868.81;;;18.61;100.00
61037;BME280;72210;47.076;15.430;2023-09-19T04:38:28;96888.06;;;18.53;100.00
61037;BME280;72210;47.076;15.430;2023-09-19T04:40:57;96897.63;;;18.54;100.00
61037;BME280;72210;47.076;15.430;2023-09-19T04:43:24;96897.28;;;18.49;100.00
61037;BME280;72210;47.076;15.430;2023-09-19T04:45:52;96899.66;;;18.42;100.00
61037;BME280;72210;47.076;15.430;2023-09-19T04:48:19;96895.84;;;18.37;100.00
61037;BME280;72210;47.076;15.430;2023-09-19T04:50:48;96902.09;;;18.36;100.00
61037;BME280;72210;47.076;15.430;2023-09-19T04:53:17;96906.00;;;18.32;100.00
61037;BME280;72210;47.076;15.430;2023-09-19T04:55:44;96912.88;;;18.24;100.00
61037;BME280;72210;47.076;15.430;2023-09-19T04:58:11;96922.88;;;18.21;100.00
61037;BME280;72210;47.076;15.430;2023-09-19T05:00:38;96931.38;;;18.15;100.00
61037;BME280;72210;47.076;15.430;2023-09-19T05:03:05;96926.25;;;18.13;100.00
61037;BME280;72210;47.076;15.430;2023-09-19T05:05:32;96938.91;;;18.09;100.00
61037;BME280;72210;47.076;15.430;2023-09-19T05:07:59;96946.00;;;18.09;100.00
61037;BME280;72210;47.076;15.430;2023-09-19T05:10:34;96950.75;;;18.05;100.00
61037;BME280;72210;47.076;15.430;2023-09-19T05:13:01;96954.50;;;18.03;100.00
61037;BME280;72210;47.076;15.430;2023-09-19T05:15:29;96962.41;;;18.03;100.00
61037;BME280;72210;47.076;15.430;2023-09-19T05:17:56;96949.38;;;18.01;100.00
61037;BME280;72210;47.076;15.430;2023-09-19T05:20:24;96972.13;;;18.02;100.00
61037;BME280;72210;47.076;15.430;2023-09-19T05:22:58;96965.84;;;18.03;100.00
61037;BME280;72210;47.076;15.430;2023-09-19T05:25:25;96965.03;;;18.03;100.00
61037;BME280;72210;47.076;15.430;2023-09-19T05:27:55;96967.22;;;18.07;100.00
61037;BME280;72210;47.076;15.430;2023-09-19T05:30:22;96965.03;;;18.03;100.00
61037;BME280;72210;47.076;15.430;2023-09-19T05:32:49;96968.13;;;17.98;100.00
61037;BME280;72210;47.076;15.430;2023-09-19T05:35:16;96965.19;;;18.01;100.00
61037;BME280;72210;47.076;15.430;2023-09-19T05:37:43;96974.75;;;18.02;100.00
61037;BME280;72210;47.076;15.430;2023-09-19T05:40:10;96968.34;;;18.05;100.00
61037;BME280;72210;47.076;15.430;2023-09-19T05:42:38;96972.50;;;18.07;100.00
61037;BME280;72210;47.076;15.430;2023-09-19T05:45:07;96970.53;;;18.09;100.00
61037;BME280;72210;47.076;15.430;2023-09-19T05:47:34;96969.78;;;18.17;100.00
61037;BME280;72210;47.076;15.430;2023-09-19T05:50:02;96964.75;;;18.24;100.00
61037;BME280;72210;47.076;15.430;2023-09-19T05:52:29;96963.91;;;18.23;100.00
61037;BME280;72210;47.076;15.430;2023-09-19T05:54:56;96968.38;;;18.23;100.00
61037;BME280;72210;47.076;15.430;2023-09-19T05:57:23;96973.09;;;18.19;100.00
61037;BME280;72210;47.076;15.430;2023-09-19T05:59:50;96975.59;;;18.21;100.00
61037;BME280;72210;47.076;15.430;2023-09-19T06:02:18;96983.59;;;18.29;100.00
61037;BME280;72210;47.076;15.430;2023-09-19T06:04:46;96982.28;;;18.33;100.00
61037;BME280;72210;47.076;15.430;2023-09-19T06:07:13;96975.59;;;18.39;100.00
61037;BME280;72210;47.076;15.430;2023-09-19T06:09:40;96965.56;;;18.42;100.00
61037;BME280;72210;47.076;15.430;2023-09-19T06:12:07;96970.34;;;18.39;100.00
61037;BME280;72210;47.076;15.430;2023-09-19T06:14:34;96983.66;;;18.37;100.00
61037;BME280;72210;47.076;15.430;2023-09-19T06:17:01;96984.78;;;18.35;100.00
61037;BME280;72210;47.076;15.430;2023-09-19T06:19:30;96985.84;;;18.42;100.00
61037;BME280;72210;47.076;15.430;2023-09-19T06:21:57;96997.06;;;18.44;100.00
61037;BME280;72210;47.076;15.430;2023-09-19T06:24:24;97010.09;;;18.45;100.00
61037;BME280;72210;47.076;15.430;2023-09-19T06:26:51;97005.53;;;18.47;100.00
61037;BME280;72210;47.076;15.430;2023-09-19T06:29:18;97008.00;;;18.49;100.00
61037;BME280;72210;47.076;15.430;2023-09-19T06:31:45;97001.59;;;18.52;100.00
61037;BME280;72210;47.076;15.430;2023-09-19T06:34:13;97012.84;;;18.54;100.00
61037;BME280;72210;47.076;15.430;2023-09-19T06:36:41;97018.78;;;18.56;100.00
61037;BME280;72210;47.076;15.430;2023-09-19T06:39:08;97016.00;;;18.57;100.00
61037;BME280;72210;47.076;15.430;2023-09-19T06:41:35;97019.00;;;18.62;100.00
61037;BME280;72210;47.076;15.430;2023-09-19T06:44:03;97014.63;;;18.71;100.00
61037;BME280;72210;47.076;15.430;2023-09-19T06:46:30;97012.06;;;18.79;100.00
61037;BME280;72210;47.076;15.430;2023-09-19T06:48:57;97025.03;;;18.91;100.00
61037;BME280;72210;47.076;15.430;2023-09-19T06:51:24;97031.88;;;19.01;100.00
61037;BME280;72210;47.076;15.430;2023-09-19T06:53:53;97040.25;;;19.15;100.00
61037;BME280;72210;47.076;15.430;2023-09-19T06:56:20;97046.94;;;19.27;100.00
61037;BME280;72210;47.076;15.430;2023-09-19T06:58:47;97050.03;;;19.41;100.00
61037;BME280;72210;47.076;15.430;2023-09-19T07:01:14;97047.63;;;19.55;100.00
61037;BME280;72210;47.076;15.430;2023-09-19T07:03:41;97044.19;;;19.63;100.00
61037;BME280;72210;47.076;15.430;2023-09-19T07:06:09;97041.09;;;19.68;100.00
61037;BME280;72210;47.076;15.430;2023-09-19T07:08:36;97034.50;;;19.72;100.00
61037;BME280;72210;47.076;15.430;2023-09-19T07:11:04;97045.59;;;19.76;100.00
61037;BME280;72210;47.076;15.430;2023-09-19T07:13:32;97042.94;;;19.76;100.00
61037;BME280;72210;47.076;15.430;2023-09-19T07:15:59;97050.38;;;19.72;100.00
61037;BME280;72210;47.076;15.430;2023-09-19T07:18:26;97037.00;;;19.73;100.00
61037;BME280;72210;47.076;15.430;2023-09-19T07:20:57;97040.31;;;19.76;100.00
61037;BME280;72210;47.076;15.430;2023-09-19T07:23:24;97047.34;;;19.67;100.00
61037;BME280;72210;47.076;15.430;2023-09-19T07:25:56;97047.50;;;19.65;100.00
61037;BME280;72210;47.076;15.430;2023-09-19T07:28:25;97064.03;;;19.67;100.00
61037;BME280;72210;47.076;15.430;2023-09-19T07:30:52;97064.41;;;19.72;100.00
61037;BME280;72210;47.076;15.430;2023-09-19T07:33:19;97058.78;;;19.76;100.00
61037;BME280;72210;47.076;15.430;2023-09-19T07:35:47;97072.69;;;19.78;100.00
61037;BME280;72210;47.076;15.430;2023-09-19T07:38:14;97078.25;;;19.74;100.00
61037;BME280;72210;47.076;15.430;2023-09-19T07:40:41;97070.34;;;19.74;100.00
61037;BME280;72210;47.076;15.430;2023-09-19T07:43:09;97071.28;;;19.65;100.00
61037;BME280;72210;47.076;15.430;2023-09-19T07:45:37;97063.81;;;19.61;100.00
61037;BME280;72210;47.076;15.430;2023-09-19T07:48:05;97072.91;;;19.58;100.00
61037;BME280;72210;47.076;15.430;2023-09-19T07:50:34;97078.84;;;19.60;100.00
61037;BME280;72210;47.076;15.430;2023-09-19T07:53:01;97088.31;;;19.71;100.00
61037;BME280;72210;47.076;15.430;2023-09-19T07:55:28;97084.28;;;19.77;100.00
61037;BME280;72210;47.076;15.430;2023-09-19T07:57:55;97091.63;;;19.91;100.00
61037;BME280;72210;47.076;15.430;2023-09-19T08:00:22;97087.41;;;20.15;100.00
61037;BME280;72210;47.076;15.430;2023-09-19T08:02:51;97081.56;;;20.37;100.00
61037;BME280;72210;47.076;15.430;2023-09-19T08:05:29;97094.34;;;20.50;100.00
61037;BME280;72210;47.076;15.430;2023-09-19T08:07:57;97092.88;;;20.56;100.00
61037;BME280;72210;47.076;15.430;2023-09-19T08:10:24;97105.97;;;20.66;100.00
61037;BME280;72210;47.076;15.430;2023-09-19T08:12:51;97094.09;;;20.78;100.00
61037;BME280;72210;47.076;15.430;2023-09-19T08:15:19;97088.50;;;20.89;100.00
61037;BME280;72210;47.076;15.430;2023-09-19T08:17:47;97086.03;;;21.04;100.00
61037;BME280;72210;47.076;15.430;2023-09-19T08:20:16;97090.16;;;21.23;100.00
61037;BME280;72210;47.076;15.430;2023-09-19T08:22:46;97089.16;;;21.41;100.00
61037;BME280;72210;47.076;15.430;2023-09-19T08:25:14;97093.78;;;21.47;100.00
61037;BME280;72210;47.076;15.430;2023-09-19T08:27:42;97086.56;;;21.49;100.00
61037;BME280;72210;47.076;15.430;2023-09-19T08:30:10;97088.19;;;21.58;100.00
61037;BME280;72210;47.076;15.430;2023-09-19T08:32:37;97088.31;;;21.73;100.00
61037;BME280;72210;47.076;15.430;2023-09-19T08:35:05;97087.16;;;21.84;100.00
61037;BME280;72210;47.076;15.430;2023-09-19T08:37:37;97091.28;;;21.86;100.00
61037;BME280;72210;47.076;15.430;2023-09-19T08:40:04;97080.81;;;21.93;100.00
61037;BME280;72210;47.076;15.430;2023-09-19T08:42:32;97079.75;;;22.11;100.00
61037;BME280;72210;47.076;15.430;2023-09-19T08:45:14;97081.72;;;22.33;100.00
61037;BME280;72210;47.076;15.430;2023-09-19T08:47:46;97085.69;;;22.61;100.00
61037;BME280;72210;47.076;15.430;2023-09-19T08:50:19;97082.53;;;22.88;100.00
61037;BME280;72210;47.076;15.430;2023-09-19T08:52:52;97080.88;;;23.19;100.00
61037;BME280;72210;47.076;15.430;2023-09-19T08:55:23;97085.91;;;23.52;98.37
61037;BME280;72210;47.076;15.430;2023-09-19T08:57:59;97088.41;;;23.83;95.17
61037;BME280;72210;47.076;15.430;2023-09-19T09:00:27;97088.88;;;24.61;90.90
61037;BME280;72210;47.076;15.430;2023-09-19T09:02:56;97097.06;;;26.86;75.31
61037;BME280;72210;47.076;15.430;2023-09-19T09:05:24;97098.09;;;29.23;61.56
61037;BME280;72210;47.076;15.430;2023-09-19T09:07:54;97084.69;;;30.84;54.14
61037;BME280;72210;47.076;15.430;2023-09-19T09:10:23;97084.72;;;32.45;46.59
61037;BME280;72210;47.076;15.430;2023-09-19T09:12:52;97090.31;;;32.96;43.78
61037;BME280;72210;47.076;15.430;2023-09-19T09:15:19;97091.44;;;33.00;42.05
61037;BME280;72210;47.076;15.430;2023-09-19T09:17:49;97089.94;;;31.09;46.48
61037;BME280;72210;47.076;15.430;2023-09-19T09:20:17;97096.84;;;29.76;50.39
61037;BME280;72210;47.076;15.430;2023-09-19T09:22:51;97099.22;;;28.63;54.67
61037;BME280;72210;47.076;15.430;2023-09-19T09:25:20;97099.78;;;28.13;57.09
61037;BME280;72210;47.076;15.430;2023-09-19T09:27:58;97102.09;;;27.83;59.76
61037;BME280;72210;47.076;15.430;2023-09-19T09:30:33;97105.22;;;27.39;60.43
61037;BME280;72210;47.076;15.430;2023-09-19T09:33:10;97106.78;;;27.20;58.38
61037;BME280;72210;47.076;15.430;2023-09-19T09:35:47;97098.56;;;27.09;61.42
61037;BME280;72210;47.076;15.430;2023-09-19T09:38:15;97095.28;;;27.13;62.11
61037;BME280;72210;47.076;15.430;2023-09-19T09:40:50;97103.88;;;26.95;58.73
61037;BME280;72210;47.076;15.430;2023-09-19T09:43:25;97107.44;;;26.54;62.39
61037;BME280;72210;47.076;15.430;2023-09-19T09:46:10;97103.47;;;26.02;64.62
61037;BME280;72210;47.076;15.430;2023-09-19T09:48:37;97112.66;;;25.71;67.63
61037;BME280;72210;47.076;15.430;2023-09-19T09:51:04;97109.47;;;26.10;65.96
61037;BME280;72210;47.076;15.430;2023-09-19T09:53:31;97103.97;;;26.60;61.09
61037;BME280;72210;47.076;15.430;2023-09-19T09:56:02;97102.59;;;26.71;65.98
61037;BME280;72210;47.076;15.430;2023-09-19T09:58:29;97108.91;;;26.63;67.03
61037;BME280;72210;47.076;15.430;2023-09-19T10:00:56;97106.19;;;26.57;67.10
61037;BME280;72210;47.076;15.430;2023-09-19T10:03:34;97110.75;;;27.85;60.70
61037;BME280;72210;47.076;15.430;2023-09-19T10:06:02;97115.00;;;29.23;55.94
61037;BME280;72210;47.076;15.430;2023-09-19T10:08:29;97120.72;;;29.59;52.49
61037;BME280;72210;47.076;15.430;2023-09-19T10:10:57;97119.38;;;29.43;50.81
61037;BME280;72210;47.076;15.430;2023-09-19T10:13:26;97113.97;;;30.00;49.47
61037;BME280;72210;47.076;15.430;2023-09-19T10:15:56;97119.31;;;32.00;44.81
61037;BME280;72210;47.076;15.430;2023-09-19T10:18:27;97126.16;;;33.88;40.12
61037;BME280;72210;47.076;15.430;2023-09-19T10:20:54;97125.81;;;34.40;37.96
61037;BME280;72210;47.076;15.430;2023-09-19T10:23:22;97129.97;;;35.79;35.87
61037;BME280;72210;47.076;15.430;2023-09-19T10:25:50;97131.97;;;37.21;32.94
61037;BME280;72210;47.076;15.430;2023-09-19T10:28:18;97138.81;;;37.49;31.58
61037;BME280;72210;47.076;15.430;2023-09-19T10:30:48;97140.16;;;38.29;30.59
61037;BME280;72210;47.076;15.430;2023-09-19T10:33:16;97129.06;;;37.84;30.22
61037;BME280;72210;47.076;15.430;2023-09-19T10:35:45;97127.41;;;35.67;33.03
61037;BME280;72210;47.076;15.430;2023-09-19T10:38:14;97125.03;;;35.38;33.44
61037;BME280;72210;47.076;15.430;2023-09-19T10:40:48;97125.75;;;36.41;31.42
61037;BME280;72210;47.076;15.430;2023-09-19T10:43:17;97127.66;;;38.17;29.47
61037;BME280;72210;47.076;15.430;2023-09-19T10:45:47;97122.53;;;39.26;28.09
61037;BME280;72210;47.076;15.430;2023-09-19T10:48:15;97122.13;;;39.82;27.21
61037;BME280;72210;47.076;15.430;2023-09-19T10:50:44;97120.41;;;40.88;26.24
61037;BME280;72210;47.076;15.430;2023-09-19T10:53:13;97112.44;;;39.31;27.41
61037;BME280;72210;47.076;15.430;2023-09-19T10:55:48;97119.00;;;37.53;29.79
61037;BME280;72210;47.076;15.430;2023-09-19T10:58:25;97106.50;;;37.37;29.68
61037;BME280;72210;47.076;15.430;2023-09-19T11:00:56;97106.66;;;36.79;29.51
61037;BME280;72210;47.076;15.430;2023-09-19T11:03:24;97107.53;;;38.08;28.03
61037;BME280;72210;47.076;15.430;2023-09-19T11:06:09;97105.50;;;39.44;26.16
61037;BME280;72210;47.076;15.430;2023-09-19T11:08:52;97118.34;;;40.56;25.82
61037;BME280;72210;47.076;15.430;2023-09-19T11:11:41;97112.78;;;41.23;24.53
61037;BME280;72210;47.076;15.430;2023-09-19T11:14:16;97101.75;;;40.52;25.26
61037;BME280;72210;47.076;15.430;2023-09-19T11:20:22;97110.63;;;41.39;23.64
61037;BME280;72210;47.076;15.430;2023-09-19T11:23:17;97109.22;;;42.08;22.98
61037;BME280;72210;47.076;15.430;2023-09-19T11:25:44;97101.00;;;42.08;21.55
61037;BME280;72210;47.076;15.430;2023-09-19T11:28:31;97102.47;;;41.53;22.12
61037;BME280;72210;47.076;15.430;2023-09-19T11:30:59;97110.16;;;41.51;22.37
61037;BME280;72210;47.076;15.430;2023-09-19T11:33:46;97103.25;;;41.02;22.90
61037;BME280;72210;47.076;15.430;2023-09-19T11:36:16;97101.25;;;41.26;23.17
61037;BME280;72210;47.076;15.430;2023-09-19T11:38:59;97100.41;;;41.12;23.27
61037;BME280;72210;47.076;15.430;2023-09-19T11:41:39;97089.13;;;41.85;22.34
61037;BME280;72210;47.076;15.430;2023-09-19T11:44:32;97095.53;;;41.94;21.95
61037;BME280;72210;47.076;15.430;2023-09-19T11:47:00;97098.69;;;39.47;24.31
61037;BME280;72210;47.076;15.430;2023-09-19T11:49:29;97094.59;;;38.60;24.88
61037;BME280;72210;47.076;15.430;2023-09-19T11:51:59;97090.44;;;37.15;26.07
61037;BME280;72210;47.076;15.430;2023-09-19T11:54:27;97087.88;;;36.09;27.49
61037;BME280;72210;47.076;15.430;2023-09-19T11:56:54;97087.13;;;36.82;27.52
61037;BME280;72210;47.076;15.430;2023-09-19T11:59:22;97083.09;;;36.26;28.68
61037;BME280;72210;47.076;15.430;2023-09-19T12:01:51;97076.88;;;37.77;27.50
61037;BME280;72210;47.076;15.430;2023-09-19T12:04:22;97072.06;;;39.73;25.41
61037;BME280;72210;47.076;15.430;2023-09-19T12:07:01;97081.59;;;40.91;23.97
61037;BME280;72210;47.076;15.430;2023-09-19T12:09:31;97074.13;;;41.82;23.62
61037;BME280;72210;47.076;15.430;2023-09-19T12:11:59;97068.38;;;42.53;22.27
61037;BME280;72210;47.076;15.430;2023-09-19T12:14:27;97063.50;;;42.50;22.23
61037;BME280;72210;47.076;15.430;2023-09-19T12:16:55;97066.78;;;42.89;21.54
61037;BME280;72210;47.076;15.430;2023-09-19T12:19:23;97071.22;;;43.98;20.62
61037;BME280;72210;47.076;15.430;2023-09-19T12:21:58;97063.38;;;44.80;19.72
61037;BME280;72210;47.076;15.430;2023-09-19T12:24:28;97062.66;;;44.31;19.97
61037;BME280;72210;47.076;15.430;2023-09-19T12:27:00;97074.31;;;43.73;20.30
61037;BME280;72210;47.076;15.430;2023-09-19T12:29:28;97069.03;;;43.32;20.21
61037;BME280;72210;47.076;15.430;2023-09-19T12:31:56;97061.00;;;42.26;21.21
61037;BME280;72210;47.076;15.430;2023-09-19T12:34:25;97059.06;;;41.98;21.52
61037;BME280;72210;47.076;15.430;2023-09-19T12:37:08;97066.78;;;42.24;21.23
61037;BME280;72210;47.076;15.430;2023-09-19T12:39:39;97070.81;;;42.13;21.27
61037;BME280;72210;47.076;15.430;2023-09-19T12:42:07;97067.03;;;42.50;20.98
61037;BME280;72210;47.076;15.430;2023-09-19T12:44:35;97075.53;;;43.36;19.96
61037;BME280;72210;47.076;15.430;2023-09-19T12:47:09;97068.59;;;43.92;19.33
61037;BME280;72210;47.076;15.430;2023-09-19T12:50:06;97075.44;;;44.53;18.71
61037;BME280;72210;47.076;15.430;2023-09-19T12:52:35;97081.69;;;44.36;18.35
61037;BME280;72210;47.076;15.430;2023-09-19T12:55:05;97076.00;;;44.23;18.46
61037;BME280;72210;47.076;15.430;2023-09-19T12:57:32;97066.88;;;43.97;18.82
61037;BME280;72210;47.076;15.430;2023-09-19T13:00:00;97057.66;;;42.15;20.33
61037;BME280;72210;47.076;15.430;2023-09-19T13:02:27;97070.09;;;40.51;21.59